sensor_id;sensor_type;location;lat;lon;timestamp;P1;durP1;ratioP1;P2;durP2;ratioP2
20511;SDS011;10414;52.074;5.126;2022-10-31T00:02:07;11.57;;;6.55;;
20511;SDS011;10414;52.074;5.126;2022-10-31T00:04:33;13.15;;;6.65;;
20511;SDS011;10414;52.074;5.126;2022-10-31T00:07:00;15.00;;;6.35;;
20511;SDS011;10414;52.074;5.126;2022-10-31T00:09:27;12.75;;;6.00;;
20511;SDS011;10414;52.074;5.126;2022-10-31T00:11:54;14.63;;;6.47;;
20511;SDS011;10414;52.074;5.126;2022-10-31T00:14:21;14.48;;;6.47;;
20511;SDS011;10414;52.074;5.126;2022-10-31T00:16:49;13.63;;;6.80;;
20511;SDS011;10414;52.074;5.126;2022-10-31T00:19:16;12.60;;;6.47;;
20511;SDS011;10414;52.074;5.126;2022-10-31T00:21:43;12.40;;;6.50;;
20511;SDS011;10414;52.074;5.126;2022-10-31T00:24:10;12.30;;;6.97;;
20511;SDS011;10414;52.074;5.126;2022-10-31T00:26:37;17.58;;;7.20;;
20511;SDS011;10414;52.074;5.126;2022-10-31T00:29:04;13.00;;;6.82;;
20511;SDS011;10414;52.074;5.126;2022-10-31T00:31:31;12.55;;;7.30;;
20511;SDS011;10414;52.074;5.126;2022-10-31T00:33:59;14.30;;;6.47;;
20511;SDS011;10414;52.074;5.126;2022-10-31T00:36:27;12.73;;;6.55;;
20511;SDS011;10414;52.074;5.126;2022-10-31T00:38:55;11.30;;;6.47;;
20511;SDS011;10414;52.074;5.126;2022-10-31T00:41:21;15.88;;;6.82;;
20511;SDS011;10414;52.074;5.126;2022-10-31T00:43:48;11.68;;;6.22;;
20511;SDS011;10414;52.074;5.126;2022-10-31T00:46:16;12.32;;;5.93;;
20511;SDS011;10414;52.074;5.126;2022-10-31T00:48:43;12.05;;;6.40;;
20511;SDS011;10414;52.074;5.126;2022-10-31T00:51:11;12.93;;;6.13;;
20511;SDS011;10414;52.074;5.126;2022-10-31T00:53:38;13.30;;;5.28;;
20511;SDS011;10414;52.074;5.126;2022-10-31T00:56:05;11.52;;;5.65;;
20511;SDS011;10414;52.074;5.126;2022-10-31T00:58:32;9.90;;;5.55;;
20511;SDS011;10414;52.074;5.126;2022-10-31T01:00:59;10.80;;;5.90;;
20511;SDS011;10414;52.074;5.126;2022-10-31T01:03:27;10.88;;;5.97;;
20511;SDS011;10414;52.074;5.126;2022-10-31T01:05:59;14.60;;;6.55;;
20511;SDS011;10414;52.074;5.126;2022-10-31T01:08:28;10.18;;;5.85;;
20511;SDS011;10414;52.074;5.126;2022-10-31T01:10:59;13.55;;;6.75;;
20511;SDS011;10414;52.074;5.126;2022-10-31T01:13:27;14.27;;;6.40;;
20511;SDS011;10414;52.074;5.126;2022-10-31T01:15:55;14.90;;;6.80;;
20511;SDS011;10414;52.074;5.126;2022-10-31T01:18:22;12.98;;;6.72;;
20511;SDS011;10414;52.074;5.126;2022-10-31T01:20:56;13.32;;;5.53;;
20511;SDS011;10414;52.074;5.126;2022-10-31T01:23:24;10.68;;;6.15;;
20511;SDS011;10414;52.074;5.126;2022-10-31T01:26:00;13.45;;;6.40;;
20511;SDS011;10414;52.074;5.126;2022-10-31T01:28:31;10.40;;;6.20;;
20511;SDS011;10414;52.074;5.126;2022-10-31T01:31:02;13.60;;;6.20;;
20511;SDS011;10414;52.074;5.126;2022-10-31T01:33:31;10.77;;;6.20;;
20511;SDS011;10414;52.074;5.126;2022-10-31T01:35:58;13.10;;;6.68;;
20511;SDS011;10414;52.074;5.126;2022-10-31T01:38:25;13.40;;;5.75;;
20511;SDS011;10414;52.074;5.126;2022-10-31T01:40:53;14.73;;;6.93;;
20511;SDS011;10414;52.074;5.126;2022-10-31T01:43:21;12.52;;;6.30;;
20511;SDS011;10414;52.074;5.126;2022-10-31T01:45:50;12.18;;;6.40;;
20511;SDS011;10414;52.074;5.126;2022-10-31T01:48:20;12.13;;;6.15;;
20511;SDS011;10414;52.074;5.126;2022-10-31T01:50:53;11.65;;;6.63;;
20511;SDS011;10414;52.074;5.126;2022-10-31T01:53:21;13.15;;;6.63;;
20511;SDS011;10414;52.074;5.126;2022-10-31T01:55:49;10.85;;;6.38;;
20511;SDS011;10414;52.074;5.126;2022-10-31T01:58:18;14.13;;;6.90;;
20511;SDS011;10414;52.074;5.126;2022-10-31T02:00:50;12.82;;;7.05;;
20511;SDS011;10414;52.074;5.126;2022-10-31T02:03:20;11.13;;;6.45;;
20511;SDS011;10414;52.074;5.126;2022-10-31T02:05:51;15.30;;;7.57;;
20511;SDS011;10414;52.074;5.126;2022-10-31T02:08:21;14.65;;;7.13;;
20511;SDS011;10414;52.074;5.126;2022-10-31T02:10:52;13.93;;;7.32;;
20511;SDS011;10414;52.074;5.126;2022-10-31T02:13:22;14.75;;;7.38;;
20511;SDS011;10414;52.074;5.126;2022-10-31T02:15:50;12.88;;;5.97;;
20511;SDS011;10414;52.074;5.126;2022-10-31T02:18:19;15.90;;;7.80;;
20511;SDS011;10414;52.074;5.126;2022-10-31T02:20:49;17.58;;;7.72;;
20511;SDS011;10414;52.074;5.126;2022-10-31T02:32:45;12.27;;;7.10;;
20511;SDS011;10414;52.074;5.126;2022-10-31T02:35:28;14.00;;;7.07;;
20511;SDS011;10414;52.074;5.126;2022-10-31T02:38:09;16.65;;;7.78;;
20511;SDS011;10414;52.074;5.126;2022-10-31T02:40:47;14.27;;;7.38;;
20511;SDS011;10414;52.074;5.126;2022-10-31T02:43:20;16.63;;;8.55;;
20511;SDS011;10414;52.074;5.126;2022-10-31T02:45:53;14.80;;;8.13;;
20511;SDS011;10414;52.074;5.126;2022-10-31T02:48:26;13.98;;;7.85;;
20511;SDS011;10414;52.074;5.126;2022-10-31T02:53:23;17.77;;;8.27;;
20511;SDS011;10414;52.074;5.126;2022-10-31T02:55:55;15.18;;;8.50;;
20511;SDS011;10414;52.074;5.126;2022-10-31T02:58:26;16.17;;;8.93;;
20511;SDS011;10414;52.074;5.126;2022-10-31T03:01:16;16.77;;;9.38;;
20511;SDS011;10414;52.074;5.126;2022-10-31T03:07:06;16.50;;;9.48;;
20511;SDS011;10414;52.074;5.126;2022-10-31T03:09:38;19.23;;;9.70;;
20511;SDS011;10414;52.074;5.126;2022-10-31T03:12:12;19.52;;;10.40;;
20511;SDS011;10414;52.074;5.126;2022-10-31T03:14:45;18.15;;;9.73;;
20511;SDS011;10414;52.074;5.126;2022-10-31T03:17:19;18.83;;;10.50;;
20511;SDS011;10414;52.074;5.126;2022-10-31T03:19:52;19.05;;;11.05;;
20511;SDS011;10414;52.074;5.126;2022-10-31T03:22:23;25.08;;;11.10;;
20511;SDS011;10414;52.074;5.126;2022-10-31T03:27:20;18.92;;;10.57;;
20511;SDS011;10414;52.074;5.126;2022-10-31T03:29:51;22.95;;;11.68;;
20511;SDS011;10414;52.074;5.126;2022-10-31T03:32:21;20.75;;;11.93;;
20511;SDS011;10414;52.074;5.126;2022-10-31T03:34:53;22.65;;;13.15;;
20511;SDS011;10414;52.074;5.126;2022-10-31T03:37:24;22.90;;;12.23;;
20511;SDS011;10414;52.074;5.126;2022-10-31T03:39:54;21.58;;;13.18;;
20511;SDS011;10414;52.074;5.126;2022-10-31T03:42:24;21.95;;;12.20;;
20511;SDS011;10414;52.074;5.126;2022-10-31T03:44:55;21.60;;;12.88;;
20511;SDS011;10414;52.074;5.126;2022-10-31T03:47:25;22.90;;;13.07;;
20511;SDS011;10414;52.074;5.126;2022-10-31T03:49:53;23.10;;;12.57;;
20511;SDS011;10414;52.074;5.126;2022-10-31T03:52:22;22.23;;;12.95;;
20511;SDS011;10414;52.074;5.126;2022-10-31T03:54:54;27.55;;;13.40;;
20511;SDS011;10414;52.074;5.126;2022-10-31T03:57:25;24.85;;;13.55;;
20511;SDS011;10414;52.074;5.126;2022-10-31T03:59:55;27.10;;;14.15;;
20511;SDS011;10414;52.074;5.126;2022-10-31T04:02:27;18.95;;;12.05;;
20511;SDS011;10414;52.074;5.126;2022-10-31T04:04:56;20.48;;;12.10;;
20511;SDS011;10414;52.074;5.126;2022-10-31T04:07:26;22.80;;;12.20;;
20511;SDS011;10414;52.074;5.126;2022-10-31T04:09:58;22.98;;;13.23;;
20511;SDS011;10414;52.074;5.126;2022-10-31T04:12:28;28.20;;;13.83;;
20511;SDS011;10414;52.074;5.126;2022-10-31T04:14:57;26.17;;;14.23;;
20511;SDS011;10414;52.074;5.126;2022-10-31T04:17:26;25.80;;;14.25;;
20511;SDS011;10414;52.074;5.126;2022-10-31T04:19:58;22.25;;;12.75;;
20511;SDS011;10414;52.074;5.126;2022-10-31T04:22:27;22.52;;;12.55;;
20511;SDS011;10414;52.074;5.126;2022-10-31T04:24:54;24.75;;;14.05;;
20511;SDS011;10414;52.074;5.126;2022-10-31T04:27:22;27.00;;;13.20;;
20511;SDS011;10414;52.074;5.126;2022-10-31T04:29:49;24.95;;;13.00;;
20511;SDS011;10414;52.074;5.126;2022-10-31T04:32:15;21.90;;;12.38;;
20511;SDS011;10414;52.074;5.126;2022-10-31T04:34:42;25.45;;;14.23;;
20511;SDS011;10414;52.074;5.126;2022-10-31T04:37:10;25.38;;;13.93;;
20511;SDS011;10414;52.074;5.126;2022-10-31T04:39:38;24.90;;;14.00;;
20511;SDS011;10414;52.074;5.126;2022-10-31T04:42:05;25.23;;;13.85;;
20511;SDS011;10414;52.074;5.126;2022-10-31T04:44:32;25.30;;;14.38;;
20511;SDS011;10414;52.074;5.126;2022-10-31T04:46:59;24.33;;;13.15;;
20511;SDS011;10414;52.074;5.126;2022-10-31T04:49:26;27.98;;;13.70;;
20511;SDS011;10414;52.074;5.126;2022-10-31T04:51:53;29.05;;;14.40;;
20511;SDS011;10414;52.074;5.126;2022-10-31T04:54:20;27.25;;;14.45;;
20511;SDS011;10414;52.074;5.126;2022-10-31T04:56:48;27.63;;;15.82;;
20511;SDS011;10414;52.074;5.126;2022-10-31T04:59:15;30.27;;;16.15;;
20511;SDS011;10414;52.074;5.126;2022-10-31T05:01:42;27.40;;;14.05;;
20511;SDS011;10414;52.074;5.126;2022-10-31T05:04:09;26.20;;;14.52;;
20511;SDS011;10414;52.074;5.126;2022-10-31T05:06:36;25.17;;;14.55;;
20511;SDS011;10414;52.074;5.126;2022-10-31T05:09:03;26.88;;;14.88;;
20511;SDS011;10414;52.074;5.126;2022-10-31T05:11:30;24.17;;;14.20;;
20511;SDS011;10414;52.074;5.126;2022-10-31T05:13:58;26.35;;;13.68;;
20511;SDS011;10414;52.074;5.126;2022-10-31T05:16:24;27.70;;;14.70;;
20511;SDS011;10414;52.074;5.126;2022-10-31T05:18:51;24.33;;;14.95;;
20511;SDS011;10414;52.074;5.126;2022-10-31T05:21:18;28.25;;;14.07;;
20511;SDS011;10414;52.074;5.126;2022-10-31T05:23:45;24.67;;;13.50;;
20511;SDS011;10414;52.074;5.126;2022-10-31T05:26:13;23.23;;;12.75;;
20511;SDS011;10414;52.074;5.126;2022-10-31T05:28:40;28.98;;;15.48;;
20511;SDS011;10414;52.074;5.126;2022-10-31T05:31:08;26.35;;;15.10;;
20511;SDS011;10414;52.074;5.126;2022-10-31T05:33:35;27.25;;;15.05;;
20511;SDS011;10414;52.074;5.126;2022-10-31T05:36:02;25.45;;;13.77;;
20511;SDS011;10414;52.074;5.126;2022-10-31T05:38:29;23.95;;;14.05;;
20511;SDS011;10414;52.074;5.126;2022-10-31T05:40:56;26.60;;;13.80;;
20511;SDS011;10414;52.074;5.126;2022-10-31T05:43:25;29.52;;;16.50;;
20511;SDS011;10414;52.074;5.126;2022-10-31T05:45:52;31.27;;;16.38;;
20511;SDS011;10414;52.074;5.126;2022-10-31T05:48:20;35.78;;;17.33;;
20511;SDS011;10414;52.074;5.126;2022-10-31T05:50:47;32.08;;;17.45;;
20511;SDS011;10414;52.074;5.126;2022-10-31T05:53:15;46.30;;;17.75;;
20511;SDS011;10414;52.074;5.126;2022-10-31T05:55:42;43.97;;;19.10;;
20511;SDS011;10414;52.074;5.126;2022-10-31T05:58:09;46.13;;;17.60;;
20511;SDS011;10414;52.074;5.126;2022-10-31T06:00:36;39.00;;;17.35;;
20511;SDS011;10414;52.074;5.126;2022-10-31T06:03:04;49.95;;;17.63;;
20511;SDS011;10414;52.074;5.126;2022-10-31T06:05:33;32.63;;;16.65;;
20511;SDS011;10414;52.074;5.126;2022-10-31T06:08:00;29.10;;;15.93;;
20511;SDS011;10414;52.074;5.126;2022-10-31T06:10:27;42.47;;;17.10;;
20511;SDS011;10414;52.074;5.126;2022-10-31T06:12:54;95.07;;;18.60;;
20511;SDS011;10414;52.074;5.126;2022-10-31T06:15:21;41.55;;;16.95;;
20511;SDS011;10414;52.074;5.126;2022-10-31T06:17:56;40.40;;;15.40;;
20511;SDS011;10414;52.074;5.126;2022-10-31T06:20:24;40.38;;;16.15;;
20511;SDS011;10414;52.074;5.126;2022-10-31T06:22:52;70.28;;;17.48;;
20511;SDS011;10414;52.074;5.126;2022-10-31T06:25:19;60.00;;;15.82;;
20511;SDS011;10414;52.074;5.126;2022-10-31T06:27:46;48.58;;;16.80;;
20511;SDS011;10414;52.074;5.126;2022-10-31T06:30:14;60.83;;;17.77;;
20511;SDS011;10414;52.074;5.126;2022-10-31T06:32:41;88.07;;;17.95;;
20511;SDS011;10414;52.074;5.126;2022-10-31T06:35:08;74.53;;;17.50;;
20511;SDS011;10414;52.074;5.126;2022-10-31T06:37:35;39.97;;;15.80;;
20511;SDS011;10414;52.074;5.126;2022-10-31T06:40:04;120.07;;;20.52;;
20511;SDS011;10414;52.074;5.126;2022-10-31T06:42:32;48.10;;;17.02;;
20511;SDS011;10414;52.074;5.126;2022-10-31T06:44:59;68.40;;;17.40;;
20511;SDS011;10414;52.074;5.126;2022-10-31T06:47:26;43.92;;;17.52;;
20511;SDS011;10414;52.074;5.126;2022-10-31T06:49:53;31.10;;;14.65;;
20511;SDS011;10414;52.074;5.126;2022-10-31T06:52:20;73.20;;;17.67;;
20511;SDS011;10414;52.074;5.126;2022-10-31T06:54:48;35.75;;;14.70;;
20511;SDS011;10414;52.074;5.126;2022-10-31T06:57:16;59.78;;;15.93;;
20511;SDS011;10414;52.074;5.126;2022-10-31T06:59:43;32.22;;;15.13;;
20511;SDS011;10414;52.074;5.126;2022-10-31T07:02:10;33.58;;;16.17;;
20511;SDS011;10414;52.074;5.126;2022-10-31T07:04:37;47.20;;;17.38;;
20511;SDS011;10414;52.074;5.126;2022-10-31T07:07:04;39.65;;;15.82;;
20511;SDS011;10414;52.074;5.126;2022-10-31T07:09:31;34.53;;;15.50;;
20511;SDS011;10414;52.074;5.126;2022-10-31T07:11:58;50.78;;;16.42;;
20511;SDS011;10414;52.074;5.126;2022-10-31T07:14:26;36.80;;;15.43;;
20511;SDS011;10414;52.074;5.126;2022-10-31T07:16:53;35.55;;;16.85;;
20511;SDS011;10414;52.074;5.126;2022-10-31T07:19:20;30.02;;;15.35;;
20511;SDS011;10414;52.074;5.126;2022-10-31T07:21:46;30.00;;;16.08;;
20511;SDS011;10414;52.074;5.126;2022-10-31T07:24:13;26.15;;;14.98;;
20511;SDS011;10414;52.074;5.126;2022-10-31T07:26:40;26.95;;;14.60;;
20511;SDS011;10414;52.074;5.126;2022-10-31T07:29:07;29.48;;;14.98;;
20511;SDS011;10414;52.074;5.126;2022-10-31T07:31:36;30.40;;;15.68;;
20511;SDS011;10414;52.074;5.126;2022-10-31T07:34:02;25.98;;;15.70;;
20511;SDS011;10414;52.074;5.126;2022-10-31T07:36:29;25.13;;;15.38;;
20511;SDS011;10414;52.074;5.126;2022-10-31T07:38:56;26.45;;;14.98;;
20511;SDS011;10414;52.074;5.126;2022-10-31T07:41:25;29.23;;;15.70;;
20511;SDS011;10414;52.074;5.126;2022-10-31T07:43:52;26.98;;;15.35;;
20511;SDS011;10414;52.074;5.126;2022-10-31T07:46:18;20.98;;;12.63;;
20511;SDS011;10414;52.074;5.126;2022-10-31T07:48:47;27.10;;;15.25;;
20511;SDS011;10414;52.074;5.126;2022-10-31T07:51:13;21.80;;;13.45;;
20511;SDS011;10414;52.074;5.126;2022-10-31T07:53:40;19.20;;;11.20;;
20511;SDS011;10414;52.074;5.126;2022-10-31T07:56:08;18.25;;;11.68;;
20511;SDS011;10414;52.074;5.126;2022-10-31T07:58:34;16.17;;;9.88;;
20511;SDS011;10414;52.074;5.126;2022-10-31T08:01:01;16.15;;;9.88;;
20511;SDS011;10414;52.074;5.126;2022-10-31T08:03:28;13.20;;;8.63;;
20511;SDS011;10414;52.074;5.126;2022-10-31T08:05:57;16.70;;;9.80;;
20511;SDS011;10414;52.074;5.126;2022-10-31T08:08:24;15.50;;;9.63;;
20511;SDS011;10414;52.074;5.126;2022-10-31T08:10:53;16.90;;;10.18;;
20511;SDS011;10414;52.074;5.126;2022-10-31T08:13:20;18.23;;;8.60;;
20511;SDS011;10414;52.074;5.126;2022-10-31T08:15:47;13.25;;;8.55;;
20511;SDS011;10414;52.074;5.126;2022-10-31T08:18:15;15.15;;;8.82;;
20511;SDS011;10414;52.074;5.126;2022-10-31T08:20:42;14.40;;;7.82;;
20511;SDS011;10414;52.074;5.126;2022-10-31T08:23:11;13.63;;;8.45;;
20511;SDS011;10414;52.074;5.126;2022-10-31T08:25:39;12.45;;;7.88;;
20511;SDS011;10414;52.074;5.126;2022-10-31T08:28:07;13.90;;;8.57;;
20511;SDS011;10414;52.074;5.126;2022-10-31T08:30:36;13.02;;;8.40;;
20511;SDS011;10414;52.074;5.126;2022-10-31T08:33:04;16.00;;;8.60;;
20511;SDS011;10414;52.074;5.126;2022-10-31T08:35:35;13.63;;;9.07;;
20511;SDS011;10414;52.074;5.126;2022-10-31T08:38:03;13.35;;;8.95;;
20511;SDS011;10414;52.074;5.126;2022-10-31T08:40:33;17.33;;;9.57;;
20511;SDS011;10414;52.074;5.126;2022-10-31T08:43:02;14.60;;;9.68;;
20511;SDS011;10414;52.074;5.126;2022-10-31T08:45:32;16.27;;;9.95;;
20511;SDS011;10414;52.074;5.126;2022-10-31T08:48:01;17.52;;;10.18;;
20511;SDS011;10414;52.074;5.126;2022-10-31T08:50:30;16.63;;;10.65;;
20511;SDS011;10414;52.074;5.126;2022-10-31T08:53:01;18.52;;;11.10;;
20511;SDS011;10414;52.074;5.126;2022-10-31T08:55:28;18.77;;;10.68;;
20511;SDS011;10414;52.074;5.126;2022-10-31T08:57:56;18.63;;;10.98;;
20511;SDS011;10414;52.074;5.126;2022-10-31T09:00:24;15.30;;;10.25;;
20511;SDS011;10414;52.074;5.126;2022-10-31T09:02:54;17.08;;;10.48;;
20511;SDS011;10414;52.074;5.126;2022-10-31T09:05:22;16.52;;;10.13;;
20511;SDS011;10414;52.074;5.126;2022-10-31T09:07:49;16.58;;;10.00;;
20511;SDS011;10414;52.074;5.126;2022-10-31T09:10:16;18.70;;;10.93;;
20511;SDS011;10414;52.074;5.126;2022-10-31T09:12:43;16.80;;;9.75;;
20511;SDS011;10414;52.074;5.126;2022-10-31T09:15:11;15.27;;;9.25;;
20511;SDS011;10414;52.074;5.126;2022-10-31T09:17:38;19.05;;;11.25;;
20511;SDS011;10414;52.074;5.126;2022-10-31T09:20:05;17.33;;;10.85;;
20511;SDS011;10414;52.074;5.126;2022-10-31T09:22:32;16.02;;;11.43;;
20511;SDS011;10414;52.074;5.126;2022-10-31T09:24:59;18.48;;;11.10;;
20511;SDS011;10414;52.074;5.126;2022-10-31T09:27:25;19.80;;;10.95;;
20511;SDS011;10414;52.074;5.126;2022-10-31T09:29:53;18.00;;;11.00;;
20511;SDS011;10414;52.074;5.126;2022-10-31T09:32:21;19.58;;;11.52;;
20511;SDS011;10414;52.074;5.126;2022-10-31T09:34:48;18.58;;;11.00;;
20511;SDS011;10414;52.074;5.126;2022-10-31T09:37:15;20.25;;;12.15;;
20511;SDS011;10414;52.074;5.126;2022-10-31T09:39:42;20.10;;;12.57;;
20511;SDS011;10414;52.074;5.126;2022-10-31T09:42:14;19.05;;;12.55;;
20511;SDS011;10414;52.074;5.126;2022-10-31T09:44:56;26.63;;;14.30;;
20511;SDS011;10414;52.074;5.126;2022-10-31T09:47:37;20.08;;;13.48;;
20511;SDS011;10414;52.074;5.126;2022-10-31T09:50:14;21.92;;;13.30;;
20511;SDS011;10414;52.074;5.126;2022-10-31T09:52:48;25.60;;;14.48;;
20511;SDS011;10414;52.074;5.126;2022-10-31T09:55:22;27.50;;;14.48;;
20511;SDS011;10414;52.074;5.126;2022-10-31T09:57:54;24.20;;;14.15;;
20511;SDS011;10414;52.074;5.126;2022-10-31T10:00:21;24.70;;;14.50;;
20511;SDS011;10414;52.074;5.126;2022-10-31T10:02:51;24.13;;;14.82;;
20511;SDS011;10414;52.074;5.126;2022-10-31T10:05:21;28.15;;;15.07;;
20511;SDS011;10414;52.074;5.126;2022-10-31T10:07:54;24.55;;;15.20;;
20511;SDS011;10414;52.074;5.126;2022-10-31T10:10:27;23.75;;;14.43;;
20511;SDS011;10414;52.074;5.126;2022-10-31T10:13:04;29.13;;;15.43;;
20511;SDS011;10414;52.074;5.126;2022-10-31T10:15:52;25.40;;;14.20;;
20511;SDS011;10414;52.074;5.126;2022-10-31T10:18:31;25.10;;;14.02;;
20511;SDS011;10414;52.074;5.126;2022-10-31T10:21:08;24.15;;;15.27;;
20511;SDS011;10414;52.074;5.126;2022-10-31T10:23:45;26.40;;;15.75;;
20511;SDS011;10414;52.074;5.126;2022-10-31T10:26:22;26.20;;;14.57;;
20511;SDS011;10414;52.074;5.126;2022-10-31T10:28:56;27.95;;;15.55;;
20511;SDS011;10414;52.074;5.126;2022-10-31T10:31:28;24.33;;;14.50;;
20511;SDS011;10414;52.074;5.126;2022-10-31T10:34:06;28.42;;;15.00;;
20511;SDS011;10414;52.074;5.126;2022-10-31T10:36:39;26.15;;;15.18;;
20511;SDS011;10414;52.074;5.126;2022-10-31T10:39:13;28.33;;;15.57;;
20511;SDS011;10414;52.074;5.126;2022-10-31T10:41:44;29.58;;;16.23;;
20511;SDS011;10414;52.074;5.126;2022-10-31T10:44:28;29.23;;;17.20;;
20511;SDS011;10414;52.074;5.126;2022-10-31T10:47:12;26.50;;;16.27;;
20511;SDS011;10414;52.074;5.126;2022-10-31T10:49:58;28.33;;;15.52;;
20511;SDS011;10414;52.074;5.126;2022-10-31T10:52:31;27.92;;;15.68;;
20511;SDS011;10414;52.074;5.126;2022-10-31T10:55:06;28.70;;;15.85;;
20511;SDS011;10414;52.074;5.126;2022-10-31T10:57:45;27.10;;;15.70;;
20511;SDS011;10414;52.074;5.126;2022-10-31T11:00:19;26.05;;;15.52;;
20511;SDS011;10414;52.074;5.126;2022-10-31T11:02:48;27.58;;;14.55;;
20511;SDS011;10414;52.074;5.126;2022-10-31T11:05:20;26.23;;;16.33;;
20511;SDS011;10414;52.074;5.126;2022-10-31T11:07:50;24.85;;;15.10;;
20511;SDS011;10414;52.074;5.126;2022-10-31T11:10:17;25.00;;;14.50;;
20511;SDS011;10414;52.074;5.126;2022-10-31T11:12:45;26.52;;;14.90;;
20511;SDS011;10414;52.074;5.126;2022-10-31T11:15:24;26.13;;;14.57;;
20511;SDS011;10414;52.074;5.126;2022-10-31T11:17:54;23.90;;;14.93;;
20511;SDS011;10414;52.074;5.126;2022-10-31T11:20:33;25.50;;;14.45;;
20511;SDS011;10414;52.074;5.126;2022-10-31T11:23:05;25.98;;;15.93;;
20511;SDS011;10414;52.074;5.126;2022-10-31T11:25:55;25.33;;;13.90;;
20511;SDS011;10414;52.074;5.126;2022-10-31T11:28:25;26.77;;;15.15;;
20511;SDS011;10414;52.074;5.126;2022-10-31T11:30:55;25.80;;;14.68;;
20511;SDS011;10414;52.074;5.126;2022-10-31T11:33:25;28.02;;;15.25;;
20511;SDS011;10414;52.074;5.126;2022-10-31T11:35:55;27.42;;;14.93;;
20511;SDS011;10414;52.074;5.126;2022-10-31T11:38:24;27.08;;;14.27;;
20511;SDS011;10414;52.074;5.126;2022-10-31T11:41:00;30.25;;;15.60;;
20511;SDS011;10414;52.074;5.126;2022-10-31T11:43:34;32.30;;;15.73;;
20511;SDS011;10414;52.074;5.126;2022-10-31T11:46:08;30.15;;;16.10;;
20511;SDS011;10414;52.074;5.126;2022-10-31T11:48:35;32.72;;;17.38;;
20511;SDS011;10414;52.074;5.126;2022-10-31T11:51:06;29.05;;;15.73;;
20511;SDS011;10414;52.074;5.126;2022-10-31T11:53:33;30.30;;;16.52;;
20511;SDS011;10414;52.074;5.126;2022-10-31T11:56:05;30.38;;;16.17;;
20511;SDS011;10414;52.074;5.126;2022-10-31T11:58:38;32.65;;;17.70;;
20511;SDS011;10414;52.074;5.126;2022-10-31T12:01:22;32.75;;;17.05;;
20511;SDS011;10414;52.074;5.126;2022-10-31T12:03:53;35.35;;;17.38;;
20511;SDS011;10414;52.074;5.126;2022-10-31T12:06:31;36.13;;;17.15;;
20511;SDS011;10414;52.074;5.126;2022-10-31T12:09:00;29.95;;;17.77;;
20511;SDS011;10414;52.074;5.126;2022-10-31T12:11:32;36.40;;;17.40;;
20511;SDS011;10414;52.074;5.126;2022-10-31T12:14:10;35.03;;;17.20;;
20511;SDS011;10414;52.074;5.126;2022-10-31T12:16:48;34.95;;;17.88;;
20511;SDS011;10414;52.074;5.126;2022-10-31T12:19:22;37.38;;;17.67;;
20511;SDS011;10414;52.074;5.126;2022-10-31T12:22:05;35.85;;;16.98;;
20511;SDS011;10414;52.074;5.126;2022-10-31T12:24:51;34.35;;;18.02;;
20511;SDS011;10414;52.074;5.126;2022-10-31T12:27:32;37.30;;;18.00;;
20511;SDS011;10414;52.074;5.126;2022-10-31T12:30:10;32.60;;;17.35;;
20511;SDS011;10414;52.074;5.126;2022-10-31T12:32:49;36.08;;;16.48;;
20511;SDS011;10414;52.074;5.126;2022-10-31T12:35:50;33.03;;;16.02;;
20511;SDS011;10414;52.074;5.126;2022-10-31T12:38:40;40.47;;;16.92;;
20511;SDS011;10414;52.074;5.126;2022-10-31T12:41:19;35.70;;;16.67;;
20511;SDS011;10414;52.074;5.126;2022-10-31T12:44:02;34.58;;;16.40;;
20511;SDS011;10414;52.074;5.126;2022-10-31T12:46:43;32.60;;;16.73;;
20511;SDS011;10414;52.074;5.126;2022-10-31T12:49:25;36.60;;;16.73;;
20511;SDS011;10414;52.074;5.126;2022-10-31T12:52:05;30.77;;;15.00;;
20511;SDS011;10414;52.074;5.126;2022-10-31T12:54:43;38.28;;;20.67;;
20511;SDS011;10414;52.074;5.126;2022-10-31T12:57:23;38.50;;;17.45;;
20511;SDS011;10414;52.074;5.126;2022-10-31T12:59:57;39.65;;;17.88;;
20511;SDS011;10414;52.074;5.126;2022-10-31T13:02:29;42.83;;;18.02;;
20511;SDS011;10414;52.074;5.126;2022-10-31T13:05:01;37.08;;;18.02;;
20511;SDS011;10414;52.074;5.126;2022-10-31T13:07:34;38.97;;;19.10;;
20511;SDS011;10414;52.074;5.126;2022-10-31T13:10:07;35.15;;;16.98;;
20511;SDS011;10414;52.074;5.126;2022-10-31T13:12:43;38.55;;;19.30;;
20511;SDS011;10414;52.074;5.126;2022-10-31T13:15:14;42.45;;;18.73;;
20511;SDS011;10414;52.074;5.126;2022-10-31T13:17:45;38.28;;;18.02;;
20511;SDS011;10414;52.074;5.126;2022-10-31T13:20:18;36.28;;;17.40;;
20511;SDS011;10414;52.074;5.126;2022-10-31T13:22:49;41.95;;;19.35;;
20511;SDS011;10414;52.074;5.126;2022-10-31T13:25:22;40.40;;;19.27;;
20511;SDS011;10414;52.074;5.126;2022-10-31T13:27:51;43.22;;;19.23;;
20511;SDS011;10414;52.074;5.126;2022-10-31T13:32:50;41.45;;;19.48;;
20511;SDS011;10414;52.074;5.126;2022-10-31T13:35:23;37.53;;;18.80;;
20511;SDS011;10414;52.074;5.126;2022-10-31T13:37:59;40.03;;;19.00;;
20511;SDS011;10414;52.074;5.126;2022-10-31T13:40:37;41.72;;;19.33;;
20511;SDS011;10414;52.074;5.126;2022-10-31T13:43:13;39.92;;;18.30;;
20511;SDS011;10414;52.074;5.126;2022-10-31T13:45:50;39.72;;;19.85;;
20511;SDS011;10414;52.074;5.126;2022-10-31T13:48:33;41.55;;;20.88;;
20511;SDS011;10414;52.074;5.126;2022-10-31T13:51:06;42.55;;;19.33;;
20511;SDS011;10414;52.074;5.126;2022-10-31T13:53:39;41.95;;;20.00;;
20511;SDS011;10414;52.074;5.126;2022-10-31T13:56:13;44.72;;;20.05;;
20511;SDS011;10414;52.074;5.126;2022-10-31T13:58:42;44.08;;;20.50;;
20511;SDS011;10414;52.074;5.126;2022-10-31T14:01:27;41.42;;;19.45;;
20511;SDS011;10414;52.074;5.126;2022-10-31T14:03:57;47.55;;;19.95;;
20511;SDS011;10414;52.074;5.126;2022-10-31T14:06:37;42.60;;;19.85;;
20511;SDS011;10414;52.074;5.126;2022-10-31T14:09:16;44.30;;;19.58;;
20511;SDS011;10414;52.074;5.126;2022-10-31T14:11:57;38.92;;;16.90;;
20511;SDS011;10414;52.074;5.126;2022-10-31T14:14:29;39.80;;;20.10;;
20511;SDS011;10414;52.074;5.126;2022-10-31T14:17:01;41.60;;;19.17;;
20511;SDS011;10414;52.074;5.126;2022-10-31T14:19:28;40.05;;;19.90;;
20511;SDS011;10414;52.074;5.126;2022-10-31T14:21:55;43.97;;;20.10;;
20511;SDS011;10414;52.074;5.126;2022-10-31T14:24:33;43.38;;;20.50;;
20511;SDS011;10414;52.074;5.126;2022-10-31T14:27:04;41.35;;;19.55;;
20511;SDS011;10414;52.074;5.126;2022-10-31T14:30:07;37.35;;;18.17;;
20511;SDS011;10414;52.074;5.126;2022-10-31T14:35:09;38.65;;;18.27;;
20511;SDS011;10414;52.074;5.126;2022-10-31T14:37:48;42.15;;;19.73;;
20511;SDS011;10414;52.074;5.126;2022-10-31T14:40:30;39.63;;;19.42;;
20511;SDS011;10414;52.074;5.126;2022-10-31T14:46:00;42.22;;;19.20;;
20511;SDS011;10414;52.074;5.126;2022-10-31T14:48:36;39.22;;;18.13;;
20511;SDS011;10414;52.074;5.126;2022-10-31T14:51:14;41.80;;;19.17;;
20511;SDS011;10414;52.074;5.126;2022-10-31T14:53:45;41.30;;;19.40;;
20511;SDS011;10414;52.074;5.126;2022-10-31T14:56:17;41.17;;;19.02;;
20511;SDS011;10414;52.074;5.126;2022-10-31T14:58:49;46.15;;;19.38;;
20511;SDS011;10414;52.074;5.126;2022-10-31T15:01:18;42.83;;;20.63;;
20511;SDS011;10414;52.074;5.126;2022-10-31T15:03:48;41.95;;;19.33;;
20511;SDS011;10414;52.074;5.126;2022-10-31T15:06:17;40.45;;;19.60;;
20511;SDS011;10414;52.074;5.126;2022-10-31T15:08:47;39.22;;;20.98;;
20511;SDS011;10414;52.074;5.126;2022-10-31T15:11:16;44.65;;;21.08;;
20511;SDS011;10414;52.074;5.126;2022-10-31T15:13:44;40.67;;;21.65;;